Aviation Digital Data Service (ADDS)

Output produced by METARs form (1359 UTC 10 July 2020)
found at http://www.aviationweather.gov/metar/data/
 
KMBO 101355Z AUTO 27006KT 10SM SCT012 27/26 A3002 RMK AO2 PWINO
KMBO 101335Z AUTO 25007KT 10SM SCT012 27/27 A3002 RMK AO2 PWINO
KMBO 101315Z AUTO 26005KT 10SM SCT010 26/26 A3001 RMK AO2 LTG DSNT SE PWINO
KMBO 101255Z AUTO 26005KT 10SM SCT001 SCT010 26/26 A3001 RMK AO2 LTG DSNT SE PWINO
KMBO 101235Z AUTO 26004KT 10SM SCT001 SCT008 26/26 A3001 RMK AO2 PWINO
KMBO 101215Z AUTO 26005KT 10SM SCT001 SCT046 26/26 A3001 RMK AO2 PWINO
KMBO 101155Z AUTO 25006KT 10SM SCT046 25/25 A3000 RMK AO2 LTG DSNT SE PWINO
KMBO 101135Z AUTO 26006KT 7SM CLR 25/25 A2999 RMK AO2 PWINO
KMBO 101115Z AUTO 25005KT 7SM CLR 25/25 A2999 RMK AO2 LTG DSNT SE PWINO
KMBO 101055Z AUTO 25004KT 10SM CLR 25/25 A2999 RMK AO2 PWINO
KMBO 101035Z AUTO 24005KT 10SM CLR 25/25 A2999 RMK AO2 PWINO
KMBO 101015Z AUTO 24003KT 10SM CLR 25/25 A2998 RMK AO2 LTG DSNT SE PWINO
KMBO 100955Z AUTO 24004KT 10SM CLR 25/25 A2997 RMK AO2 PWINO
KMBO 100935Z AUTO 24003KT 10SM CLR 25/25 A2997 RMK AO2 PWINO
KMBO 100915Z AUTO 24004KT 10SM CLR 25/25 A2996 RMK AO2 LTG DSNT SE PWINO
KMBO 100855Z AUTO 24005KT 10SM CLR 26/26 A2996 RMK AO2 PWINO
KMBO 100835Z AUTO 24003KT 10SM CLR 26/26 A2996 RMK AO2 PWINO
KMBO 100815Z AUTO 24004KT 10SM CLR 26/26 A2996 RMK AO2 PWINO
KMBO 100755Z AUTO 22003KT 10SM SCT038 SCT046 25/25 A2996 RMK AO2 PWINO
KMBO 100735Z AUTO 00000KT 7SM SCT036 BKN044 25/25 A2996 RMK AO2 PWINO
KMBO 100715Z AUTO 00000KT 7SM BKN036 BKN043 24/24 A2996 RMK AO2 PWINO
KMBO 100655Z AUTO 00000KT 7SM BKN034 24/24 A2996 RMK AO2 PWINO
KMBO 100635Z AUTO 00000KT 7SM SCT036 24/24 A2996 RMK AO2 PWINO
KMBO 100615Z AUTO 00000KT 7SM CLR 24/24 A2996 RMK AO2 PWINO
KMBO 100555Z AUTO 00000KT 7SM CLR 24/24 A2996 RMK AO2 PWINO
KMBO 100535Z AUTO 00000KT 7SM CLR 24/24 A2995 RMK AO2 PWINO
KMBO 100515Z AUTO 00000KT 7SM CLR 24/24 A2995 RMK AO2 PWINO
KMBO 100455Z AUTO 00000KT 7SM CLR 24/24 A2994 RMK AO2 PWINO
KMBO 100435Z AUTO 00000KT 10SM CLR 24/24 A2994 RMK AO2 PWINO
KMBO 100415Z AUTO 00000KT 10SM CLR 24/24 A2993 RMK AO2 PWINO
KMBO 100355Z AUTO 00000KT 10SM CLR 25/25 A2993 RMK AO2 PWINO
KMBO 100335Z AUTO 00000KT 10SM CLR 25/25 A2993 RMK AO2 PWINO
KMBO 100315Z AUTO 00000KT 10SM CLR 25/25 A2992 RMK AO2 PWINO
KMBO 100255Z AUTO 00000KT 10SM CLR 25/25 A2991 RMK AO2 PWINO
KMBO 100235Z AUTO 00000KT 10SM CLR 25/25 A2991 RMK AO2 PWINO
KMBO 100215Z AUTO 00000KT 10SM CLR 25/25 A2991 RMK AO2 PWINO
KMBO 100155Z AUTO 00000KT 10SM CLR 25/25 A2991 RMK AO2 PWINO
KMBO 100135Z AUTO 00000KT 10SM CLR 26/26 A2991 RMK AO2 PWINO
KMBO 100115Z AUTO 00000KT 10SM CLR 26/26 A2992 RMK AO2 PWINO
KMBO 100055Z AUTO 00000KT 10SM CLR 27/26 A2992 RMK AO2 PWINO
KMBO 100035Z AUTO 00000KT 7SM CLR 28/25 A2992 RMK AO2 PWINO
KMBO 100015Z AUTO 24006KT 10SM CLR 30/23 A2993 RMK AO2 LTG DSNT NE PWINO
KMBO 092355Z AUTO 27005KT 10SM CLR 30/23 A2993 RMK AO2 PWINO
KMBO 092335Z AUTO 25007KT 10SM CLR 31/23 A2993 RMK AO2 PWINO
KMBO 092315Z AUTO 25004KT 10SM CLR 31/23 A2993 RMK AO2 PWINO
KMBO 092255Z AUTO 25008KT 10SM CLR 31/23 A2993 RMK AO2 PWINO
KMBO 092235Z AUTO 26004KT 10SM CLR 31/23 A2993 RMK AO2 PWINO
KMBO 092215Z AUTO 24009KT 10SM CLR 31/23 A2993 RMK AO2 PWINO
KMBO 092155Z AUTO 26006KT 10SM SCT039 31/23 A2993 RMK AO2 PWINO
KMBO 092135Z AUTO 26009KT 10SM CLR 32/24 A2993 RMK AO2 PWINO
KMBO 092115Z AUTO 26008KT 10SM SCT036 32/23 A2993 RMK AO2 PWINO
KMBO 092055Z AUTO 27005KT 10SM SCT036 32/25 A2994 RMK AO2 PWINO
KMBO 092035Z AUTO 25008KT 7SM SCT034 32/25 A2994 RMK AO2 LTG DSNT NE AND E PWINO
KMBO 092015Z AUTO 27006KT 10SM SCT034 32/25 A2993 RMK AO2 LTG DSNT N AND NE PWINO
KMBO 091955Z AUTO 26004KT 10SM SCT034 31/25 A2993 RMK AO2 LTG DSNT N PWINO
KMBO 091935Z AUTO 25005KT 7SM CLR 31/25 A2994 RMK AO2 LTG DSNT N AND NE PWINO
KMBO 091915Z AUTO 22007KT 10SM CLR 31/25 A2995 RMK AO2 PWINO
KMBO 091855Z AUTO 24004KT 10SM SCT029 31/26 A2995 RMK AO2 LTG DSNT NE PWINO
KMBO 091835Z AUTO 20006KT 10SM CLR 31/25 A2996 RMK AO2 PWINO
KMBO 091815Z AUTO 24004KT 7SM CLR 31/25 A2996 RMK AO2 LTG DSNT N PWINO
KMBO 091755Z AUTO 24005KT 10SM CLR 30/26 A2996 RMK AO2 LTG DSNT N PWINO
KMBO 091735Z AUTO 26005KT 7SM SCT022 SCT027 30/26 A2996 RMK AO2 PWINO
KMBO 091715Z AUTO 00000KT 7SM SCT022 SCT027 SCT034 30/26 A2996 RMK AO2 PWINO
KMBO 091655Z AUTO 22005KT 7SM SCT022 SCT027 SCT032 30/26 A2996 RMK AO2 PWINO
KMBO 091635Z AUTO 00000KT 7SM SCT020 SCT028 SCT038 29/26 A2997 RMK AO2 PWINO
KMBO 091615Z AUTO 25003KT 7SM SCT020 OVC026 28/26 A2997 RMK AO2 PWINO
KMBO 091555Z AUTO 00000KT 7SM SCT018 OVC026 28/26 A2997 RMK AO2 LTG DSNT E PWINO
KMBO 091535Z AUTO 00000KT 7SM OVC020 28/26 A2997 RMK AO2 LTG DSNT E PWINO
KMBO 091515Z AUTO 26005KT 7SM OVC017 27/26 A2997 RMK AO2 PWINO
KMBO 091455Z AUTO 25006KT 7SM OVC015 27/26 A2997 RMK AO2 LTG DSNT N PWINO
KMBO 091435Z AUTO 27005KT 7SM OVC015 26/26 A2996 RMK AO2 LTG DSNT NE AND E PWINO
KMBO 091415Z AUTO 26007KT 7SM OVC013 26/26 A2996 RMK AO2 LTG DSNT N AND NE PWINO
KMBO 091355Z AUTO 27005KT 7SM VCTS OVC013 26/26 A2997 RMK AO2 LTG DSNT N AND NE
KMBO 091335Z AUTO 26006KT 7SM VCTS OVC011 26/26 A2996 RMK AO2 LTG DSNT NE
KMBO 091315Z AUTO 25007KT 7SM OVC011 26/26 A2996 RMK AO2 LTG DSNT N PWINO
KMBO 091255Z AUTO 25008KT 7SM OVC011 25/25 A2996 RMK AO2 LTG DSNT N AND NW PWINO
KMBO 091235Z AUTO 26006KT 7SM VCTS OVC011 25/25 A2996 RMK AO2 LTG DSNT N AND NW
KMBO 091215Z AUTO 25005KT 7SM OVC009 25/25 A2995 RMK AO2 LTG DSNT N AND NW PWINO
KMBO 091155Z AUTO 25004KT 7SM OVC009 25/25 A2995 RMK AO2 LTG DSNT N AND NW PWINO
KMBO 091135Z AUTO 25004KT 7SM VCTS OVC009 24/24 A2995 RMK AO2 LTG DSNT N
KMBO 091115Z AUTO 25007KT 7SM OVC009 24/24 A2994 RMK AO2 PWINO
KMBO 091055Z AUTO 23006KT 7SM OVC007 24/24 A2994 RMK AO2 PWINO
KMBO 091035Z AUTO 24007KT 7SM OVC007 24/24 A2993 RMK AO2 LTG DSNT NW PWINO
KMBO 091015Z AUTO 24006KT 7SM OVC007 23/23 A2993 RMK AO2 PWINO
KMBO 090955Z AUTO 23006KT 7SM OVC009 23/23 A2992 RMK AO2 PWINO
KMBO 090935Z AUTO 22006KT 7SM OVC009 23/23 A2992 RMK AO2 LTG DSNT NW PWINO
KMBO 090915Z AUTO 22005KT 7SM SCT004 OVC009 23/23 A2992 RMK AO2 PWINO
KMBO 090855Z AUTO 22005KT 10SM OVC007 23/23 A2991 RMK AO2 PWINO
KMBO 090835Z AUTO 21004KT 7SM OVC005 22/22 A2991 RMK AO2 PWINO
KMBO 090815Z AUTO 20003KT 7SM OVC005 22/22 A2991 RMK AO2 PWINO
KMBO 090755Z AUTO 20004KT 10SM OVC005 22/22 A2991 RMK AO2 PWINO
KMBO 090735Z AUTO 19005KT 10SM OVC005 22/22 A2991 RMK AO2 PWINO
KMBO 090715Z AUTO 19006KT 10SM BKN005 OVC039 22/22 A2992 RMK AO2 PWINO
KMBO 090655Z AUTO 19005KT 10SM BKN005 BKN037 OVC045 22/22 A2992 RMK AO2 LTG DSNT SE PWINO
KMBO 090635Z AUTO 00000KT 10SM BKN005 BKN060 22/22 A2993 RMK AO2 PWINO
KMBO 090615Z AUTO 00000KT 10SM SCT005 SCT060 22/22 A2993 RMK AO2 PWINO
KMBO 090555Z AUTO 00000KT 10SM CLR 22/22 A2994 RMK AO2 PWINO
KMBO 090535Z AUTO 19003KT 10SM SCT080 22/22 A2994 RMK AO2 PWINO
KMBO 090515Z AUTO 18003KT 10SM CLR 23/23 A2994 RMK AO2 PWINO
KMBO 090455Z AUTO 18003KT 10SM SCT090 23/23 A2995 RMK AO2 PWINO
KMBO 090435Z AUTO 00000KT 10SM SCT004 SCT090 23/23 A2995 RMK AO2 PWINO
KMBO 090415Z AUTO 00000KT 10SM SCT004 SCT080 23/23 A2995 RMK AO2 PWINO
KMBO 090355Z AUTO 19003KT 10SM BKN004 BKN070 23/23 A2994 RMK AO2 PWINO
KMBO 090335Z AUTO 00000KT 10SM OVC004 23/23 A2994 RMK AO2 PWINO
KMBO 090315Z AUTO 00000KT 10SM BKN004 BKN038 BKN080 23/23 A2994 RMK AO2 PWINO
KMBO 090255Z AUTO 00000KT 10SM SCT004 SCT038 23/23 A2994 RMK AO2 PWINO
KMBO 090235Z AUTO 00000KT 10SM CLR 23/23 A2994 RMK AO2 PWINO
KMBO 090215Z AUTO 00000KT 10SM CLR 23/23 A2993 RMK AO2 PWINO
KMBO 090155Z AUTO 00000KT 10SM CLR 23/23 A2993 RMK AO2 LTG DSNT SW PWINO
KMBO 090135Z AUTO 00000KT 10SM CLR 23/23 A2993 RMK AO2 PWINO
KMBO 090115Z AUTO 20003KT 10SM CLR 23/23 A2992 RMK AO2 PWINO
KMBO 090055Z AUTO 20003KT 10SM CLR 24/24 A2992 RMK AO2 PWINO
KMBO 090035Z AUTO 00000KT 10SM CLR 24/24 A2992 RMK AO2 PWINO
KMBO 090015Z AUTO 20003KT 10SM CLR 25/25 A2991 RMK AO2 LTG DSNT SW PWINO
KMBO 082355Z AUTO 19004KT 10SM CLR 25/25 A2992 RMK AO2 PWINO
KMBO 082335Z AUTO 16003KT 10SM CLR 25/25 A2992 RMK AO2 PWINO
KMBO 082315Z AUTO 18004KT 10SM CLR 25/25 A2993 RMK AO2 PWINO
KMBO 082255Z AUTO 00000KT 10SM CLR 25/25 A2994 RMK AO2 LTG DSNT SE AND NW PWINO
KMBO 082235Z AUTO 00000KT 10SM CLR 25/25 A2995 RMK AO2 LTG DSNT NW PWINO
KMBO 082215Z AUTO 20006KT 10SM CLR 25/24 A2995 RMK AO2 PWINO
KMBO 082155Z AUTO 23003KT 10SM CLR 24/24 A2995 RMK AO2 LTG DSNT NW PWINO
KMBO 082135Z AUTO 22005KT 10SM CLR 24/24 A2995 RMK AO2 LTG DSNT SE AND S PWINO
KMBO 082115Z AUTO 22004KT 10SM CLR 23/23 A2995 RMK AO2 LTG DSNT SE PWINO
KMBO 082055Z AUTO 22008KT 10SM CLR 24/23 A2996 RMK AO2 LTG DSNT SE AND S PWINO
KMBO 082035Z AUTO 22007KT 10SM CLR 25/23 A2995 RMK AO2 LTG DSNT SE AND S PWINO
KMBO 082015Z AUTO 24005KT 10SM SCT010 SCT027 26/24 A2995 RMK AO2 LTG DSNT S AND SW PWINO
KMBO 081955Z AUTO 23009G14KT 10SM VCTS SCT009 SCT013 SCT026 25/25 A2997 RMK AO2 LTG DSNT S AND W
KMBO 081935Z AUTO 00000KT 10SM VCTS CLR 24/24 A2997 RMK AO2 LTG DSNT S THRU W
KMBO 081915Z AUTO 19003KT 10SM VCTS BKN001 23/23 A2997 RMK AO2 LTG DSNT E THRU W
KMBO 081855Z AUTO 00000KT 10SM VCTS BKN001 BKN060 22/22 A2998 RMK AO2 LTG DSNT ALQDS
KMBO 081835Z AUTO 00000KT 10SM BKN001 BKN060 22/22 A2999 RMK AO2 LTG DSNT ALQDS PWINO
KMBO 081815Z AUTO 00000KT 5SM TS OVC003 22/22 A2998 RMK AO2 LTG DSNT ALQDS
KMBO 081755Z AUTO 00000KT 4SM TS OVC003 22/22 A3000 RMK AO2 LTG DSNT ALQDS
KMBO 081735Z AUTO 00000KT 7SM TS OVC003 22/22 A3002 RMK AO2 LTG DSNT SE THRU W
KMBO 081715Z AUTO 00000KT 5SM TS OVC001 22/22 A3001 RMK AO2 LTG DSNT ALQDS
KMBO 081655Z AUTO 00000KT 2SM TS BKN003 OVC009 21/21 A3002 RMK AO2 LTG DSNT SE THRU W
KMBO 081635Z AUTO 31005KT 3SM VCTS BKN003 BKN009 OVC020 22/22 A3002 RMK AO2 LTG DSNT NE S AND W
KMBO 081615Z AUTO 30003KT 5SM VCTS SCT003 SCT008 BKN024 22/22 A3002 RMK AO2 LTG DSNT S THRU NW
KMBO 081555Z AUTO 32004KT 7SM SCT001 SCT007 BKN013 22/22 A3001 RMK AO2 LTG DSNT ALQDS PWINO
KMBO 081535Z AUTO 25007KT 7SM VCTS BKN012 BKN018 BKN026 26/26 A3001 RMK AO2 LTG DSNT W THRU N
KMBO 081515Z AUTO 25003KT 7SM OVC012 25/25 A3001 RMK AO2 LTG DSNT S THRU N PWINO
KMBO 081455Z AUTO 22005KT 7SM BKN012 OVC017 25/25 A3001 RMK AO2 LTG DSNT N AND NW PWINO
KMBO 081435Z AUTO 21004KT 7SM BKN010 OVC014 25/25 A3001 RMK AO2 LTG DSNT SW THRU N PWINO
KMBO 081415Z AUTO 18003KT 7SM SCT001 OVC010 25/25 A3000 RMK AO2 LTG DSNT W AND NW PWINO
KMBO 081355Z AUTO 00000KT 7SM SCT001 OVC008 25/25 A3000 RMK AO2 LTG DSNT W THRU N PWINO
KMBO 081335Z AUTO 20003KT 7SM VCTS BKN001 OVC008 24/24 A2999 RMK AO2 LTG DSNT W THRU N
KMBO 081315Z AUTO 18004KT 7SM BKN001 OVC006 24/24 A2999 RMK AO2 LTG DSNT W AND NW PWINO
KMBO 081255Z AUTO 00000KT 7SM BKN001 OVC006 23/23 A2999 RMK AO2 LTG DSNT W AND NW PWINO
KMBO 081235Z AUTO 00000KT 5SM BKN001 OVC008 23/23 A2999 RMK AO2 LTG DSNT W AND NW PWINO
KMBO 081215Z AUTO 00000KT 7SM SCT001 OVC008 23/23 A2999 RMK AO2 LTG DSNT W AND NW PWINO
KMBO 081155Z AUTO 00000KT 10SM OVC008 23/23 A2999 RMK AO2 LTG DSNT NW PWINO
KMBO 081135Z AUTO 00000KT 10SM OVC008 23/23 A2999 RMK AO2 LTG DSNT NW PWINO
KMBO 081115Z AUTO 00000KT 10SM SCT008 23/23 A2999 RMK AO2 PWINO
KMBO 081055Z AUTO 00000KT 10SM SCT012 23/23 A2999 RMK AO2 LTG DSNT NW PWINO
KMBO 081035Z AUTO 00000KT 10SM SCT014 22/22 A2999 RMK AO2 PWINO
KMBO 081015Z AUTO 00000KT 10SM CLR 23/23 A2998 RMK AO2 LTG DSNT NW PWINO
KMBO 080955Z AUTO 00000KT 10SM CLR 23/23 A2998 RMK AO2 LTG DSNT NW PWINO
KMBO 080935Z AUTO 00000KT 10SM CLR 23/23 A2998 RMK AO2 PWINO
KMBO 080915Z AUTO 00000KT 10SM CLR 23/23 A2998 RMK AO2 PWINO
KMBO 080855Z AUTO 20003KT 10SM CLR 23/23 A2998 RMK AO2 PWINO
KMBO 080835Z AUTO 20003KT 7SM CLR 23/23 A2998 RMK AO2 PWINO
KMBO 080815Z AUTO 00000KT 7SM CLR 23/23 A2998 RMK AO2 PWINO
KMBO 080755Z AUTO 00000KT 7SM SCT003 23/23 A2998 RMK AO2 PWINO
KMBO 080735Z AUTO 00000KT 10SM SCT003 23/23 A2998 RMK AO2 PWINO
KMBO 080715Z AUTO 00000KT 10SM CLR 23/23 A2999 RMK AO2 PWINO
KMBO 080655Z AUTO 00000KT 10SM CLR 22/22 A2999 RMK AO2 PWINO
KMBO 080635Z AUTO 00000KT 10SM CLR 22/22 A2999 RMK AO2 PWINO
KMBO 080615Z AUTO 00000KT 7SM CLR 22/22 A2999 RMK AO2 PWINO
KMBO 080555Z AUTO 00000KT 7SM CLR 22/22 A3000 RMK AO2 PWINO
KMBO 080535Z AUTO 00000KT 5SM CLR 22/22 A3000 RMK AO2 PWINO
KMBO 080515Z AUTO 00000KT 7SM CLR 22/22 A3000 RMK AO2 PWINO
KMBO 080455Z AUTO 00000KT 7SM CLR 22/22 A3000 RMK AO2 PWINO
KMBO 080435Z AUTO 00000KT 7SM CLR 22/22 A2999 RMK AO2 PWINO
KMBO 080415Z AUTO 00000KT 5SM CLR 22/22 A2999 RMK AO2 PWINO
KMBO 080355Z AUTO 00000KT 5SM CLR 22/22 A3000 RMK AO2 PWINO
KMBO 080335Z AUTO 00000KT 7SM CLR 22/22 A2999 RMK AO2 PWINO
KMBO 080315Z AUTO 00000KT 5SM CLR 22/22 A2999 RMK AO2 PWINO
KMBO 080255Z AUTO 00000KT 7SM CLR 22/22 A2999 RMK AO2 PWINO
KMBO 080235Z AUTO 00000KT 7SM CLR 22/22 A2998 RMK AO2 PWINO
KMBO 080215Z AUTO 00000KT 7SM CLR 22/22 A2998 RMK AO2 PWINO
KMBO 080155Z AUTO 00000KT 10SM CLR 22/22 A2998 RMK AO2 PWINO
KMBO 080135Z AUTO 00000KT 10SM CLR 22/22 A2998 RMK AO2 PWINO
KMBO 080115Z AUTO 00000KT 10SM CLR 22/22 A2996 RMK AO2 PWINO
KMBO 080055Z AUTO 00000KT 10SM CLR 22/22 A2996 RMK AO2 PWINO
KMBO 080035Z AUTO 00000KT 10SM CLR 22/22 A2996 RMK AO2 LTG DSNT E PWINO
KMBO 080015Z AUTO 00000KT 10SM CLR 22/22 A2998 RMK AO2 PWINO
KMBO 072355Z AUTO 00000KT 10SM SCT003 SCT007 SCT012 22/22 A2999 RMK AO2 LTG DSNT NE PWINO
KMBO 072335Z AUTO 07005KT 5SM SCT003 BKN032 OVC038 22/22 A2999 RMK AO2 LTG DSNT NE PWINO
KMBO 072315Z AUTO 00000KT 5SM SCT011 BKN028 OVC033 22/22 A3001 RMK AO2 PWINO
KMBO 072255Z AUTO 36005KT 10SM SCT018 BKN024 24/23 A2999 RMK AO2 LTG DSNT NE PWINO
KMBO 072235Z AUTO 00000KT 10SM TS SCT025 27/25 A2999 RMK AO2 LTG DSNT N AND NE
KMBO 072215Z AUTO 00000KT 10SM VCTS CLR 27/26 A2999 RMK AO2 LTG DSNT N AND SE
KMBO 072155Z AUTO 00000KT 10SM CLR 28/25 A2998 RMK AO2 LTG DSNT SE PWINO
KMBO 072135Z AUTO 00000KT 10SM CLR 27/26 A2999 RMK AO2 LTG DSNT SE AND S PWINO
KMBO 072115Z AUTO 20003KT 10SM VCTS CLR 26/26 A2999 RMK AO2 LTG DSNT N THRU SE
KMBO 072055Z AUTO 00000KT 10SM VCTS CLR 26/26 A3000 RMK AO2 LTG DSNT N SE AND NW
KMBO 072035Z AUTO 00000KT 10SM SCT017 25/25 A3000 RMK AO2 PWINO
KMBO 072015Z AUTO 00000KT 10SM OVC015 23/23 A3001 RMK AO2 LTG DSNT NE THRU SE PWINO
KMBO 071955Z AUTO 00000KT 3SM TS SCT003 BKN012 BKN019 24/24 A3001 RMK AO2 LTG DSNT NE THRU S
KMBO 071935Z AUTO 21003KT 7SM SCT003 SCT006 BKN030 26/26 A2999 RMK AO2 LTG DSNT NE AND SE PWINO
KMBO 071915Z AUTO 24009KT 10SM VCTS SCT035 27/26 A2999 RMK AO2 LTG DSNT E
KMBO 071855Z AUTO 26007KT 10SM SCT031 28/23 A3000 RMK AO2 LTG DSNT SE PWINO
KMBO 071835Z AUTO 26004KT 10SM CLR 29/23 A3001 RMK AO2 PWINO
KMBO 071815Z AUTO 00000KT 10SM CLR 28/23 A3002 RMK AO2 LTG DSNT S PWINO
KMBO 071755Z AUTO 31003KT 10SM CLR 28/23 A3002 RMK AO2 LTG DSNT SE PWINO
KMBO 071735Z AUTO 00000KT 10SM SCT022 SCT028 29/23 A3002 RMK AO2 LTG DSNT NW PWINO
KMBO 071715Z AUTO 27004KT 10SM SCT021 SCT027 28/25 A3003 RMK AO2 PWINO
KMBO 071655Z AUTO 27004KT 10SM SCT018 SCT027 28/25 A3003 RMK AO2 PWINO
KMBO 071635Z AUTO 28006KT 10SM SCT018 SCT027 27/25 A3003 RMK AO2 PWINO
KMBO 071615Z AUTO 26007KT 10SM SCT015 BKN019 BKN023 27/25 A3003 RMK AO2 PWINO
KMBO 071555Z AUTO 29004KT 10SM BKN015 OVC020 26/25 A3004 RMK AO2 PWINO
KMBO 071535Z AUTO 28005KT 10SM OVC015 26/25 A3004 RMK AO2 PWINO
KMBO 071515Z AUTO 28005KT 10SM BKN011 BKN019 26/25 A3004 RMK AO2 PWINO
KMBO 071455Z AUTO 28005KT 10SM BKN009 BKN014 25/25 A3004 RMK AO2 PWINO
KMBO 071435Z AUTO 27005KT 10SM BKN009 BKN014 25/25 A3003 RMK AO2 PWINO
KMBO 071415Z AUTO 24005KT 10SM OVC007 24/24 A3003 RMK AO2 PWINO